createdAt,value
2022-09-01T00:03:52.594Z,20
2022-09-01T00:08:56.530Z,20
2022-09-01T00:13:59.168Z,19.9
2022-09-01T00:19:02.627Z,19.9
2022-09-01T00:24:05.493Z,19.9
2022-09-01T00:29:08.081Z,19.9
2022-09-01T00:34:10.354Z,19.8
2022-09-01T00:39:13.337Z,19.9
2022-09-01T00:44:15.610Z,19.9
2022-09-01T00:49:19.607Z,19.4
2022-09-01T00:54:22.364Z,18
2022-09-01T00:59:24.979Z,17.7
2022-09-01T01:04:27.455Z,17.6
2022-09-01T01:09:30.144Z,17.1
2022-09-01T01:14:32.518Z,17
2022-09-01T01:19:40.345Z,16.7
2022-09-01T01:24:43.253Z,16.5
2022-09-01T01:29:45.487Z,16.5
2022-09-01T01:34:50.758Z,16.3
2022-09-01T01:39:53.974Z,16.3
2022-09-01T01:44:56.803Z,16.3
2022-09-01T01:49:59.600Z,16.2
2022-09-01T01:55:07.186Z,16.2
2022-09-01T02:00:10.652Z,16.3
2022-09-01T02:05:13.037Z,16.2
2022-09-01T02:10:15.777Z,16.2
2022-09-01T02:15:18.673Z,16.3
2022-09-01T02:20:20.992Z,16.2
2022-09-01T02:25:23.902Z,16.1
2022-09-01T02:30:26.758Z,16
2022-09-01T02:35:29.419Z,16.1
2022-09-01T02:40:35.708Z,16.1
2022-09-01T02:45:39.087Z,16.1
2022-09-01T02:50:41.909Z,16
2022-09-01T02:55:44.233Z,16
2022-09-01T03:00:47.086Z,15.9
2022-09-01T03:05:49.394Z,15.9
2022-09-01T03:10:54.546Z,15.9
2022-09-01T03:15:57.218Z,15.8
2022-09-01T03:20:59.815Z,15.7
2022-09-01T03:26:02.610Z,15.6
2022-09-01T03:31:05.388Z,15.6
2022-09-01T03:36:17.555Z,15.5
2022-09-01T03:41:10.870Z,15.4
2022-09-01T03:46:13.554Z,15.2
2022-09-01T03:51:16.470Z,15.2
2022-09-01T03:56:19.707Z,15.1
2022-09-01T04:01:22.601Z,15
2022-09-01T04:06:25.766Z,14.9
2022-09-01T04:11:28.885Z,14.9
2022-09-01T04:16:31.628Z,14.9
2022-09-01T04:21:34.020Z,14.9
2022-09-01T04:26:36.483Z,15
2022-09-01T04:31:39.365Z,15
2022-09-01T04:36:41.755Z,15
2022-09-01T04:41:44.069Z,15
2022-09-01T04:46:46.514Z,14.9
2022-09-01T04:51:55.544Z,15.1
2022-09-01T04:56:58.719Z,15.2
2022-09-01T05:02:01.584Z,15.3
2022-09-01T05:07:04.060Z,15.2
2022-09-01T05:12:06.336Z,15.3
2022-09-01T05:17:09.040Z,15.4
2022-09-01T05:22:11.700Z,15.5
2022-09-01T05:27:15.487Z,15.6
2022-09-01T05:32:17.946Z,15.5
2022-09-01T05:37:20.539Z,15.6
2022-09-01T05:42:23.232Z,15.7
2022-09-01T05:47:25.507Z,15.7
2022-09-01T05:52:28.196Z,15.7
2022-09-01T05:57:37.000Z,15.8
2022-09-01T06:02:40.058Z,15.8
2022-09-01T06:07:43.748Z,15.9
2022-09-01T06:12:49.807Z,16
2022-09-01T06:17:47.008Z,16.1
2022-09-01T06:22:49.309Z,16.1
2022-09-01T06:27:52.203Z,16.3
2022-09-01T06:32:55.133Z,16.3
2022-09-01T06:37:57.566Z,16.3
2022-09-01T06:43:00.284Z,16.3
2022-09-01T06:48:02.858Z,16.5
2022-09-01T06:53:36.794Z,16.6
2022-09-01T06:58:22.629Z,16.7
2022-09-01T07:03:17.009Z,16.7
2022-09-01T07:08:20.135Z,16.8
2022-09-01T07:13:24.168Z,17
2022-09-01T07:44:16.673Z,17.7
2022-09-01T07:50:40.152Z,17.8
2022-09-01T07:54:27.048Z,17.8
2022-09-01T07:59:29.754Z,18
2022-09-01T08:04:32.186Z,17.9
2022-09-01T08:09:45.440Z,17.8
2022-09-01T08:14:39.558Z,17.6
2022-09-01T08:19:44.111Z,17.9
2022-09-01T08:24:46.763Z,18
2022-09-01T08:29:49.167Z,18
2022-09-01T08:34:53.750Z,18.6
2022-09-01T08:39:56.049Z,18.5
2022-09-01T08:44:58.378Z,18.7
2022-09-01T08:50:00.741Z,18.7
2022-09-01T08:55:07.694Z,18.9
2022-09-01T09:00:10.120Z,18.9
2022-09-01T09:05:20.150Z,18.9
2022-09-01T09:10:13.371Z,19.2
2022-09-01T09:15:15.817Z,19.2
2022-09-01T09:20:18.575Z,19.4
2022-09-01T09:25:25.031Z,19.4
2022-09-01T09:30:28.573Z,19.6
2022-09-01T09:35:31.657Z,19.5
2022-09-01T09:41:18.676Z,20
2022-09-01T09:45:41.944Z,20.1
2022-09-01T09:50:45.496Z,20.2
2022-09-01T09:55:48.839Z,20.1
2022-09-01T10:00:58.279Z,20
2022-09-01T10:06:04.333Z,19.9
2022-09-01T10:11:12.691Z,19.6
2022-09-01T10:16:15.444Z,19.5
2022-09-01T10:21:16.085Z,19.5
2022-09-01T10:26:20.805Z,19.3
2022-09-01T10:31:34.539Z,19.3
2022-09-01T10:36:26.882Z,19.3
2022-09-01T10:41:29.541Z,19.6
2022-09-01T10:46:59.812Z,19.9
2022-09-01T10:52:03.142Z,20.1
2022-09-01T10:56:52.051Z,20.4
2022-09-01T11:01:52.005Z,20.7
2022-09-01T11:07:14.126Z,20.9
2022-09-01T11:11:49.965Z,21.4
2022-09-01T11:16:52.942Z,21.7
2022-09-01T11:21:55.794Z,21.7
2022-09-01T11:26:58.381Z,22.1
2022-09-01T11:32:01.732Z,22.6
2022-09-01T11:37:05.965Z,23
2022-09-01T11:42:09.219Z,23.1
2022-09-01T11:47:16.475Z,22.9
2022-09-01T11:52:18.865Z,22.9
2022-09-01T11:57:21.786Z,22.7
2022-09-01T12:02:24.827Z,22.6
2022-09-01T12:07:27.652Z,22.5
2022-09-01T12:12:30.257Z,22.7
2022-09-01T12:17:33.127Z,22.9
2022-09-01T12:22:35.395Z,22.9
2022-09-01T12:27:37.730Z,23
2022-09-01T12:32:40.602Z,22.7
2022-09-01T12:37:42.932Z,22.7
2022-09-01T12:42:46.891Z,22.7
2022-09-01T12:47:51.528Z,22.6
2022-09-01T12:52:54.777Z,22.4
2022-09-01T12:57:57.143Z,22.4
2022-09-01T13:02:59.687Z,22.5
2022-09-01T13:08:03.464Z,22
2022-09-01T13:13:06.119Z,22.1
2022-09-01T13:18:08.714Z,22.1
2022-09-01T13:23:11.262Z,22
2022-09-01T13:28:14.053Z,21.7
2022-09-01T13:38:22.640Z,22.2
2022-09-01T13:43:25.866Z,22.3
2022-09-01T13:49:44.836Z,22.3
2022-09-01T13:53:30.050Z,22.3
2022-09-01T13:58:32.590Z,22.1
2022-09-01T14:03:35.381Z,21.9
2022-09-01T14:08:37.915Z,21.9
2022-09-01T14:13:40.377Z,21.9
2022-09-01T14:18:42.646Z,22
2022-09-01T14:23:45.394Z,22
2022-09-01T14:28:47.806Z,22
2022-09-01T14:33:50.148Z,21.8
2022-09-01T14:38:52.745Z,21.7
2022-09-01T14:43:57.581Z,21.5
2022-09-01T14:49:04.498Z,21.5
2022-09-01T14:54:07.000Z,21.6
2022-09-01T14:59:09.338Z,21.6
2022-09-01T15:04:11.883Z,21.4
2022-09-01T15:09:20.413Z,21
2022-09-01T15:14:22.833Z,20.9
2022-09-01T15:19:25.626Z,20.9
2022-09-01T15:24:27.957Z,20.9
2022-09-01T15:29:30.292Z,20.9
2022-09-01T15:34:33.012Z,20.8
2022-09-01T15:39:40.637Z,20.8
2022-09-01T15:44:42.960Z,20.7
2022-09-01T15:49:45.830Z,20.6
2022-09-01T15:54:49.633Z,20.6
2022-09-01T15:59:52.184Z,20.7
2022-09-01T16:04:55.379Z,20.6
2022-09-01T16:09:58.074Z,20.8
2022-09-01T16:15:01.493Z,20.7
2022-09-01T16:20:03.769Z,20.6
2022-09-01T16:25:06.486Z,20.4
2022-09-01T16:30:09.017Z,20.4
2022-09-01T16:35:11.336Z,20.4
2022-09-01T16:40:15.592Z,20
2022-09-01T16:45:18.403Z,20
2022-09-01T16:50:21.310Z,19.9
2022-09-01T16:55:24.111Z,19.8
2022-09-01T17:00:26.965Z,19.7
2022-09-01T17:05:29.879Z,19.7
2022-09-01T17:10:33.001Z,19.7
2022-09-01T17:15:35.818Z,19.8
2022-09-01T17:20:39.350Z,19.6
2022-09-01T17:25:41.681Z,19.6
2022-09-01T17:30:46.822Z,19.5
2022-09-01T17:35:49.461Z,19.4
2022-09-01T17:40:52.924Z,19.4
2022-09-01T17:45:55.373Z,19.3
2022-09-01T17:51:03.290Z,19.5
2022-09-01T17:56:06.151Z,19.5
2022-09-01T18:01:09.042Z,19.5
2022-09-01T18:06:11.778Z,19.4
2022-09-01T18:11:14.139Z,19.3
2022-09-01T18:16:17.022Z,19.2
2022-09-01T18:21:19.594Z,19.1
2022-09-01T18:26:21.906Z,19
2022-09-01T18:31:24.751Z,18.8
2022-09-01T18:36:27.795Z,18.8
2022-09-01T18:41:30.054Z,18.8
2022-09-01T18:46:32.854Z,18.8
2022-09-01T18:51:35.381Z,18.7
2022-09-01T18:56:40.072Z,18.8
2022-09-01T19:01:43.029Z,18.9
2022-09-01T19:06:46.208Z,18.8
2022-09-01T19:11:48.469Z,18.8
2022-09-01T19:16:50.819Z,18.6
2022-09-01T19:21:56.694Z,18.5
2022-09-01T19:31:59.924Z,18.5
2022-09-01T19:37:02.331Z,18.6
2022-09-01T19:42:04.681Z,18.5
2022-09-01T19:47:07.227Z,18.3
2022-09-01T19:52:09.739Z,18.3
2022-09-01T19:57:12.469Z,18.1
2022-09-01T20:02:15.882Z,18
2022-09-01T20:07:18.962Z,18
2022-09-01T20:12:21.933Z,17.9
2022-09-01T20:17:24.293Z,18
2022-09-01T20:22:33.110Z,18
2022-09-01T20:27:35.561Z,18
2022-09-01T20:32:38.715Z,18.4
2022-09-01T20:37:41.144Z,18.3
2022-09-01T20:42:43.671Z,18.5
2022-09-01T20:47:46.019Z,18.5
2022-09-01T20:52:49.031Z,18.5
2022-09-01T20:57:51.456Z,18.4
2022-09-01T21:02:54.619Z,18.4
2022-09-01T21:07:57.805Z,18.4
2022-09-01T21:13:00.080Z,18.4
2022-09-01T21:18:02.908Z,18.4
2022-09-01T21:23:08.903Z,18.3
2022-09-01T21:28:11.515Z,18.2
2022-09-01T21:33:13.854Z,18.2
2022-09-01T21:38:16.787Z,18.1
2022-09-01T21:43:19.698Z,18.1
2022-09-01T21:48:22.560Z,18
2022-09-01T21:53:25.200Z,18
2022-09-01T21:58:27.624Z,18
2022-09-01T22:03:29.871Z,18
2022-09-01T22:08:32.517Z,17.9
2022-09-01T22:13:35.199Z,17.9
2022-09-01T22:18:37.640Z,17.9
2022-09-01T22:23:40.366Z,17.8
2022-09-01T22:28:42.659Z,17.8
2022-09-01T22:33:45.256Z,17.7
2022-09-01T22:38:47.953Z,17.6
2022-09-01T22:43:50.379Z,17.6
2022-09-01T22:48:52.666Z,17.6
2022-09-01T22:53:56.409Z,17.4
2022-09-01T22:58:58.969Z,17.3
2022-09-01T23:04:01.308Z,17.3
2022-09-01T23:09:03.875Z,17.2
2022-09-01T23:14:06.225Z,17.1
2022-09-01T23:19:09.638Z,17.1
2022-09-01T23:24:15.321Z,17
2022-09-01T23:29:21.554Z,17
2022-09-01T23:34:24.055Z,16.9
2022-09-01T23:39:26.671Z,16.9
2022-09-01T23:44:29.151Z,16.8
2022-09-01T23:49:31.747Z,16.7
2022-09-01T23:54:34.046Z,16.7
2022-09-01T23:59:36.604Z,16.7
